Time;durP1;ratioP1;P1;durP2;ratioP2;P2;SDS_P1;SDS_P2;PMS_P1;PMS_P2;Temp;Humidity;BMP_temperature;BMP_pressure;BME280_temperature;BME280_humidity;BME280_pressure;Samples;Min_cycle;Max_cycle;Signal;HPM_P1;HPM_P2
2022/06/02 00:02:04;;;;;;;10.45;8.60;;;;;;;15.38;49.89;101845.56;4990272;28;20516;-64
2022/06/02 00:04:31;;;;;;;11.73;9.27;;;;;;;15.36;49.66;101846.69;4996134;28;20499;-64
2022/06/02 00:07:04;;;;;;;11.63;8.55;;;;;;;15.31;49.96;101840.75;4996125;28;20046;-64
2022/06/02 00:09:33;;;;;;;11.02;9.05;;;;;;;15.26;50.08;101841.94;4982662;28;20042;-64
2022/06/02 00:12:02;;;;;;;11.52;8.98;;;;;;;15.24;49.99;101846.63;4995991;28;20053;-63
2022/06/02 00:14:47;;;;;;;11.25;9.32;;;;;;;15.24;49.92;101845.75;4995815;28;20049;-63
2022/06/02 00:17:40;;;;;;;11.57;8.80;;;;;;;15.20;50.16;101855.94;4995913;28;20056;-63
2022/06/02 00:20:20;;;;;;;10.15;8.80;;;;;;;15.19;50.08;101854.22;4995967;28;20043;-64
2022/06/02 00:22:50;;;;;;;12.05;9.40;;;;;;;15.17;49.99;101861.59;4995945;28;20038;-63
2022/06/02 00:25:43;;;;;;;11.15;9.73;;;;;;;15.14;50.30;101856.41;4996077;28;20054;-63
2022/06/02 00:28:31;;;;;;;11.00;9.73;;;;;;;15.15;50.38;101859.97;4995769;28;20121;-63
2022/06/02 00:31:19;;;;;;;11.05;9.27;;;;;;;15.09;50.43;101861.28;4975220;28;20052;-64
2022/06/02 00:34:02;;;;;;;10.77;9.05;;;;;;;15.08;50.38;101861.41;4993902;28;20042;-63
2022/06/02 00:36:45;;;;;;;12.02;9.82;;;;;;;15.04;50.29;101862.59;4978473;28;20081;-65
2022/06/02 00:39:15;;;;;;;10.73;9.63;;;;;;;15.00;50.39;101861.97;4995232;28;20065;-63
2022/06/02 00:41:54;;;;;;;10.45;9.35;;;;;;;14.96;50.38;101865.00;4995555;28;20048;-63
2022/06/02 00:44:39;;;;;;;10.82;9.70;;;;;;;14.91;50.51;101866.22;4995291;28;20045;-63
2022/06/02 00:47:43;;;;;;;10.40;9.40;;;;;;;14.87;50.40;101871.97;4995296;28;20042;-63
2022/06/02 00:50:51;;;;;;;10.40;9.35;;;;;;;14.81;50.38;101877.78;4982509;28;20034;-64
2022/06/02 00:53:36;;;;;;;11.43;10.20;;;;;;;14.78;50.71;101875.28;4993627;28;20053;-64
2022/06/02 00:59:16;;;;;;;11.85;9.77;;;;;;;14.72;50.52;101878.44;4993882;28;20453;-64
2022/06/02 01:01:42;;;;;;;11.30;9.52;;;;;;;14.69;50.60;101874.13;4992793;28;20047;-63
2022/06/02 01:04:14;;;;;;;12.32;9.98;;;;;;;14.69;50.59;101878.66;4995090;28;20065;-64
2022/06/02 01:06:49;;;;;;;11.88;10.63;;;;;;;14.66;50.68;101877.03;4994994;28;20042;-64
2022/06/02 01:09:21;;;;;;;11.95;10.35;;;;;;;14.63;50.82;101872.72;4994715;28;20500;-64
2022/06/02 01:12:06;;;;;;;12.32;10.52;;;;;;;14.61;50.93;101874.69;4994150;28;20038;-64
2022/06/02 01:14:44;;;;;;;13.07;10.43;;;;;;;14.57;50.82;101881.28;4994722;28;20065;-64
2022/06/02 01:17:29;;;;;;;12.10;10.80;;;;;;;14.55;50.65;101875.13;4994724;28;20053;-64
2022/06/02 01:20:07;;;;;;;14.02;11.25;;;;;;;14.50;51.13;101869.19;4994595;28;20043;-64
2022/06/02 01:22:40;;;;;;;13.90;11.00;;;;;;;14.50;51.07;101871.00;4994010;28;20140;-64
2022/06/02 01:25:28;;;;;;;11.85;10.32;;;;;;;14.48;51.20;101867.56;4994744;28;20051;-64
2022/06/02 01:28:22;;;;;;;12.20;10.90;;;;;;;14.46;51.07;101877.59;4994829;28;20046;-64
2022/06/02 01:31:07;;;;;;;13.45;10.73;;;;;;;14.43;51.05;101870.59;4977049;28;20035;-63
2022/06/02 01:33:43;;;;;;;12.50;11.00;;;;;;;14.41;51.13;101877.03;4971579;28;20049;-64
2022/06/02 01:36:37;;;;;;;13.65;11.43;;;;;;;14.39;51.26;101871.75;4994109;28;20077;-64
2022/06/02 01:39:16;;;;;;;14.02;11.05;;;;;;;14.38;51.36;101866.44;4994067;28;20039;-63
2022/06/02 01:41:49;;;;;;;12.98;11.30;;;;;;;14.37;51.27;101865.59;4976782;28;20560;-64
2022/06/02 01:44:23;;;;;;;12.55;11.25;;;;;;;14.33;51.03;101864.06;4976873;28;20046;-64
2022/06/02 01:46:59;;;;;;;13.65;11.82;;;;;;;14.29;51.13;101881.47;4994534;28;20137;-64
2022/06/02 01:49:44;;;;;;;13.73;11.85;;;;;;;14.23;51.29;101868.41;4994000;28;20034;-64
2022/06/02 01:52:58;;;;;;;14.70;12.07;;;;;;;14.20;51.21;101874.88;4993767;28;20038;-63
2022/06/02 01:55:37;;;;;;;16.83;12.07;;;;;;;14.19;51.37;101869.59;4937451;29;20536;-64
2022/06/02 01:58:21;;;;;;;13.77;12.38;;;;;;;14.17;51.08;101872.38;4992501;28;20388;-64
2022/06/02 02:00:59;;;;;;;15.52;12.07;;;;;;;14.15;51.45;101873.47;4994251;28;20046;-63
2022/06/02 02:03:38;;;;;;;16.55;13.23;;;;;;;14.14;51.25;101877.13;4993886;28;20548;-64
2022/06/02 02:06:20;;;;;;;15.63;13.05;;;;;;;14.08;51.46;101874.84;4993973;28;20054;-64
2022/06/02 02:09:06;;;;;;;14.18;12.68;;;;;;;13.99;51.51;101879.91;4994316;28;20515;-63
2022/06/02 02:11:42;;;;;;;13.25;11.32;;;;;;;13.93;51.51;101872.22;4992560;28;20039;-63
2022/06/02 02:14:21;;;;;;;10.95;9.57;;;;;;;13.88;51.72;101871.69;4993759;28;20069;-63
2022/06/02 02:17:24;;;;;;;12.80;10.68;;;;;;;13.83;51.59;101868.44;4993855;28;20049;-63
2022/06/02 02:20:34;;;;;;;12.23;10.93;;;;;;;13.77;51.60;101876.09;4993244;28;20045;-62
2022/06/02 02:23:17;;;;;;;13.85;12.35;;;;;;;13.74;52.01;101879.84;4965589;28;20074;-64
2022/06/02 02:25:53;;;;;;;14.45;12.00;;;;;;;13.71;51.95;101877.38;4994043;28;20052;-63
2022/06/02 02:28:26;;;;;;;15.00;12.70;;;;;;;13.68;51.89;101874.88;4993581;28;20063;-63
2022/06/02 02:31:26;;;;;;;16.17;12.55;;;;;;;13.66;52.13;101874.13;4993859;28;20050;-63
2022/06/02 02:34:18;;;;;;;14.85;13.30;;;;;;;13.65;51.99;101875.94;4979951;28;20053;-63
2022/06/02 02:36:54;;;;;;;18.48;14.63;;;;;;;13.64;52.04;101876.03;4993916;28;20046;-63
2022/06/02 02:39:31;;;;;;;18.90;15.35;;;;;;;13.62;52.21;101873.44;4993541;28;20035;-63
2022/06/02 02:42:17;;;;;;;17.50;15.05;;;;;;;13.61;52.03;101879.81;4993232;28;20500;-62
2022/06/02 02:44:58;;;;;;;11.25;10.05;;;;;;;13.62;52.15;101883.38;4981159;28;20050;-63
2022/06/02 02:47:35;;;;;;;11.30;9.25;;;;;;;13.57;51.97;101880.13;4993587;28;20411;-63
2022/06/02 02:50:10;;;;;;;10.50;8.85;;;;;;;13.51;51.92;101883.25;4993593;28;20038;-62
2022/06/02 02:52:59;;;;;;;9.17;7.83;;;;;;;13.43;52.05;101881.06;4993273;28;20049;-63
2022/06/02 02:55:33;;;;;;;11.75;9.35;;;;;;;13.38;51.94;101888.59;4976278;28;20303;-63
2022/06/02 02:58:04;;;;;;;12.68;10.75;;;;;;;13.30;51.93;101888.19;4993311;28;20039;-64
2022/06/02 03:01:01;;;;;;;11.02;9.80;;;;;;;13.23;52.05;101892.25;4992948;28;20126;-63
2022/06/02 03:04:06;;;;;;;10.98;9.85;;;;;;;13.15;51.99;101894.56;4992982;28;20126;-62
2022/06/02 03:06:38;;;;;;;10.02;8.68;;;;;;;13.09;52.04;101901.22;4993022;28;20408;-64
2022/06/02 03:09:18;;;;;;;9.63;8.63;;;;;;;13.03;52.10;101904.31;4993694;28;20392;-63
2022/06/02 03:11:54;;;;;;;8.80;7.90;;;;;;;12.94;52.12;101913.00;4992700;28;20050;-63
2022/06/02 03:14:27;;;;;;;8.48;7.57;;;;;;;12.88;52.31;101910.69;4993248;28;20038;-63
2022/06/02 03:17:08;;;;;;;11.63;10.43;;;;;;;12.85;52.51;101914.47;4993325;28;20042;-63
2022/06/02 03:20:01;;;;;;;13.50;10.07;;;;;;;12.83;52.73;101916.38;4992751;28;20038;-64
2022/06/02 03:22:45;;;;;;;12.02;10.73;;;;;;;12.84;52.57;101923.50;4993576;28;20110;-63
2022/06/02 03:25:24;;;;;;;13.85;12.27;;;;;;;12.84;52.58;101918.13;4996851;28;20395;-63
2022/06/02 03:28:13;;;;;;;14.63;12.63;;;;;;;12.86;52.78;101923.41;4996926;28;20049;-63
2022/06/02 03:30:51;;;;;;;16.10;13.20;;;;;;;12.85;52.81;101922.53;4996784;28;20042;-64
2022/06/02 03:33:29;;;;;;;16.45;13.10;;;;;;;12.86;52.83;101923.41;4996267;28;20035;-63
2022/06/02 03:36:22;;;;;;;16.17;14.27;;;;;;;12.89;53.08;101928.59;4997416;28;20046;-64
2022/06/02 03:39:05;;;;;;;17.88;14.63;;;;;;;12.92;52.98;101933.81;4996601;28;20486;-63
2022/06/02 03:42:03;;;;;;;17.65;14.55;;;;;;;12.94;53.17;101938.13;4996099;28;20058;-64
2022/06/02 03:44:33;;;;;;;14.27;12.52;;;;;;;12.94;52.80;101945.34;4983739;28;20496;-63
2022/06/02 03:47:18;;;;;;;13.20;11.45;;;;;;;12.90;52.84;101942.00;4996536;28;20047;-64
2022/06/02 03:49:52;;;;;;;13.70;11.88;;;;;;;12.86;53.09;101948.53;4979139;28;20046;-63
2022/06/02 03:52:35;;;;;;;15.77;12.85;;;;;;;12.85;53.09;101944.13;4995868;28;20049;-63
2022/06/02 03:55:07;;;;;;;16.05;13.45;;;;;;;12.89;53.19;101950.19;4983522;28;20049;-63
2022/06/02 03:57:40;;;;;;;15.32;13.43;;;;;;;12.89;53.32;101947.47;4996471;28;20046;-63
2022/06/02 04:00:26;;;;;;;17.90;14.30;;;;;;;12.90;53.42;101952.78;4996408;28;20047;-62
2022/06/02 04:03:03;;;;;;;18.58;15.63;;;;;;;12.93;53.29;101955.28;4978784;28;20042;-63
2022/06/02 04:05:36;;;;;;;21.85;16.23;;;;;;;12.94;53.29;101956.16;4995441;28;20488;-63
2022/06/02 04:08:02;;;;;;;21.48;16.55;;;;;;;12.93;53.33;101960.66;4996007;28;20042;-63
2022/06/02 04:10:47;;;;;;;15.32;12.73;;;;;;;12.90;53.31;101954.59;4997078;28;20050;-63
2022/06/02 04:13:38;;;;;;;12.70;10.77;;;;;;;12.86;53.48;101956.63;4995852;28;20046;-63
2022/06/02 04:16:20;;;;;;;13.10;11.45;;;;;;;12.83;53.63;101964.91;4995578;28;20791;-63
2022/06/02 04:22:19;;;;;;;18.17;12.05;;;;;;;12.78;53.59;101969.72;4982224;28;20125;-64
2022/06/02 04:24:59;;;;;;;;;;;;;;;12.73;53.62;101972.72;4995801;28;20488;-64
2022/06/02 04:27:35;;;;;;;15.10;11.48;;;;;;;12.73;53.37;101966.44;4995846;28;19922;-63
2022/06/02 04:30:25;;;;;;;13.65;12.15;;;;;;;12.68;53.54;101969.44;4991792;28;20412;-64
2022/06/02 04:33:14;;;;;;;16.67;14.38;;;;;;;12.66;53.76;101971.34;4962710;28;20055;-64
2022/06/02 04:35:50;;;;;;;18.65;13.82;;;;;;;12.66;53.76;101970.50;4982194;28;20459;-64
2022/06/02 04:38:41;;;;;;;21.33;15.80;;;;;;;12.65;54.02;101982.22;4995733;28;20039;-63
2022/06/02 04:41:22;;;;;;;21.50;17.77;;;;;;;12.66;54.17;101978.56;4976740;28;20400;-63
2022/06/02 04:44:00;;;;;;;23.98;19.20;;;;;;;12.63;54.42;101987.72;4995389;28;20042;-62
2022/06/02 04:46:54;;;;;;;23.83;19.10;;;;;;;12.57;54.39;101988.06;4995308;28;20038;-64
2022/06/02 04:49:58;;;;;;;23.38;18.85;;;;;;;12.56;54.88;101986.31;4995180;28;20042;-64
2022/06/02 04:52:27;;;;;;;22.70;19.13;;;;;;;12.64;54.78;101985.88;4976784;28;20072;-63
2022/06/02 04:55:16;;;;;;;26.88;20.70;;;;;;;12.73;55.18;101990.72;4995176;28;20129;-63
2022/06/02 04:57:56;;;;;;;31.38;23.10;;;;;;;12.83;55.31;101988.31;4995403;28;20035;-63
2022/06/02 05:00:34;;;;;;;30.42;23.65;;;;;;;12.91;55.13;101999.47;4994662;28;20089;-63
2022/06/02 05:03:21;;;;;;;31.08;22.80;;;;;;;12.98;55.42;101995.44;4994781;28;20034;-63
2022/06/02 05:06:06;;;;;;;30.63;25.17;;;;;;;13.07;55.55;101997.56;4994781;28;20050;-64
2022/06/02 05:08:58;;;;;;;29.13;23.90;;;;;;;13.15;55.67;102003.31;4982601;28;20061;-64
2022/06/02 05:11:36;;;;;;;30.00;24.85;;;;;;;13.22;55.60;102007.41;4994737;28;20435;-63
2022/06/02 05:14:15;;;;;;;30.17;24.70;;;;;;;13.29;55.78;102003.34;4994793;28;20046;-64
2022/06/02 05:17:13;;;;;;;35.60;27.85;;;;;;;13.36;55.61;102004.69;4994435;28;20038;-64
2022/06/02 05:20:09;;;;;;;43.50;30.58;;;;;;;13.43;55.71;102001.63;4994918;28;20054;-63
2022/06/02 05:22:50;;;;;;;44.88;31.58;;;;;;;13.51;55.62;102002.84;4994763;28;20065;-63
2022/06/02 05:25:54;;;;;;;39.08;32.30;;;;;;;13.56;55.92;101999.84;4993993;28;20147;-63
2022/06/02 05:28:40;;;;;;;42.08;32.95;;;;;;;13.60;55.86;102007.66;4994035;28;20049;-63
2022/06/02 05:31:26;;;;;;;;;;;;;;;13.65;55.63;102018.16;4994874;28;20396;-63
2022/06/02 05:34:08;;;;;;;44.22;33.25;;;;;;;13.73;55.70;102013.09;4994689;28;19936;-63
2022/06/02 05:36:49;;;;;;;45.25;35.45;;;;;;;13.78;55.83;102013.69;4994255;28;20050;-63
2022/06/02 05:40:03;;;;;;;43.40;35.05;;;;;;;13.83;56.29;102013.38;4982690;28;20070;-64
2022/06/02 05:42:44;;;;;;;50.05;38.63;;;;;;;13.93;56.47;102014.50;4912127;29;20060;-63
2022/06/02 05:45:20;;;;;;;46.50;35.50;;;;;;;13.99;56.43;102012.25;4915268;29;20044;-63
2022/06/02 05:47:51;;;;;;;44.70;35.30;;;;;;;14.03;56.75;102015.59;4961061;28;20054;-63
2022/06/02 05:50:30;;;;;;;48.53;35.88;;;;;;;14.09;56.82;102017.91;4994252;28;20046;-64
2022/06/02 05:53:16;;;;;;;46.85;35.58;;;;;;;14.17;56.90;102022.81;4993645;28;20492;-62
2022/06/02 05:56:06;;;;;;;43.22;33.75;;;;;;;14.30;57.24;102021.00;4994253;28;20035;-62
2022/06/02 05:58:36;;;;;;;44.30;33.08;;;;;;;14.47;57.24;102026.16;4983351;28;20400;-63
2022/06/02 06:01:24;;;;;;;45.00;35.70;;;;;;;14.65;57.23;102020.47;4993715;28;20068;-62
2022/06/02 06:04:27;;;;;;;41.40;33.28;;;;;;;14.85;57.51;102025.34;4993053;28;20551;-62
2022/06/02 06:07:18;;;;;;;41.88;32.25;;;;;;;15.01;57.29;102026.00;4981734;28;20042;-62
2022/06/02 06:10:00;;;;;;;37.88;29.10;;;;;;;15.20;57.29;102026.44;4993709;28;20408;-63
2022/06/02 06:12:45;;;;;;;34.55;28.50;;;;;;;15.39;57.29;102025.09;4993799;28;20469;-61
2022/06/02 06:15:26;;;;;;;36.47;29.02;;;;;;;15.49;57.20;102027.03;4993550;28;20043;-62
2022/06/02 06:18:26;;;;;;;35.28;28.60;;;;;;;15.61;56.84;102028.03;4992581;28;20050;-62
2022/06/02 06:21:12;;;;;;;35.75;26.95;;;;;;;15.79;56.90;102033.94;4985038;28;20427;-62
2022/06/02 06:23:51;;;;;;;31.58;26.92;;;;;;;15.99;56.91;102029.72;4993470;28;20053;-62
2022/06/02 06:26:20;;;;;;;36.65;26.05;;;;;;;16.11;56.79;102032.38;4993228;28;20038;-62
2022/06/02 06:29:31;;;;;;;31.83;26.08;;;;;;;16.33;57.05;102037.03;4982594;28;20057;-62
2022/06/02 06:32:02;;;;;;;28.70;24.52;;;;;;;16.58;56.53;102033.31;4993132;28;20054;-62
2022/06/02 06:34:55;;;;;;;27.17;23.30;;;;;;;16.76;56.38;102041.91;4993601;28;20042;-63
2022/06/02 06:37:53;;;;;;;25.77;21.05;;;;;;;16.95;56.36;102042.19;4993372;28;20060;-65
2022/06/02 06:40:55;;;;;;;27.23;21.70;;;;;;;17.21;56.03;102044.72;4993595;28;20493;-66
2022/06/02 06:43:52;;;;;;;26.02;21.33;;;;;;;17.49;55.98;102052.38;4971181;28;20551;-63
2022/06/02 06:46:40;;;;;;;25.15;21.15;;;;;;;17.69;55.76;102050.78;4993569;28;20360;-64
2022/06/02 06:49:15;;;;;;;22.13;19.83;;;;;;;17.87;55.37;102051.13;4993374;28;20047;-64
2022/06/02 06:52:07;;;;;;;24.27;20.77;;;;;;;18.13;55.24;102057.13;4976075;28;20030;-63
2022/06/02 06:55:01;;;;;;;18.10;16.20;;;;;;;18.40;54.88;102055.66;4975976;28;20397;-64
2022/06/02 06:57:45;;;;;;;17.60;15.20;;;;;;;18.64;54.82;102057.34;4994177;28;20050;-63
2022/06/02 07:00:34;;;;;;;16.80;14.65;;;;;;;18.87;54.17;102063.50;4986188;28;20038;-64
2022/06/02 07:03:17;;;;;;;17.85;15.15;;;;;;;19.11;53.98;102060.50;4997290;28;20073;-64
2022/06/02 07:05:49;;;;;;;15.25;12.93;;;;;;;19.27;53.56;102067.19;4997216;28;20034;-63
2022/06/02 07:08:40;;;;;;;15.85;14.15;;;;;;;19.39;53.33;102065.25;4996927;28;20038;-64
2022/06/02 07:14:50;;;;;;;14.60;13.07;;;;;;;19.55;52.12;102076.53;4996785;28;20077;-64
2022/06/02 07:17:46;;;;;;;13.18;11.80;;;;;;;19.67;52.22;102080.03;4997095;28;20046;-64
2022/06/02 07:20:47;;;;;;;14.63;12.88;;;;;;;19.73;51.73;102082.19;4979512;28;20053;-64
2022/06/02 07:23:56;;;;;;;14.43;12.30;;;;;;;19.57;51.21;102092.75;4996821;28;20377;-64
2022/06/02 07:26:35;;;;;;;15.02;12.32;;;;;;;19.49;51.20;102089.81;4996703;28;20128;-65
2022/06/02 07:29:29;;;;;;;13.10;11.70;;;;;;;19.45;51.50;102091.09;4979356;28;20042;-64
2022/06/02 07:32:31;;;;;;;14.73;13.13;;;;;;;19.43;50.79;102087.63;4977343;28;20061;-64
2022/06/02 07:35:35;;;;;;;13.93;12.52;;;;;;;19.46;51.26;102084.63;4996814;28;20392;-64
2022/06/02 07:38:06;;;;;;;13.27;11.77;;;;;;;19.50;51.27;102086.97;4996781;28;20046;-64
2022/06/02 07:40:57;;;;;;;11.73;10.52;;;;;;;19.53;51.02;102094.88;4996522;28;20049;-64
2022/06/02 07:43:48;;;;;;;9.50;8.60;;;;;;;19.58;50.72;102095.34;4996288;28;20065;-64
2022/06/02 07:46:35;;;;;;;8.68;7.13;;;;;;;19.59;50.30;102091.63;4996224;28;20104;-64
2022/06/02 07:49:23;;;;;;;6.43;5.72;;;;;;;19.62;49.48;102094.06;4996391;28;20055;-64
2022/06/02 07:52:01;;;;;;;8.68;7.75;;;;;;;19.61;49.61;102089.63;4996126;28;20061;-65
2022/06/02 07:54:47;;;;;;;9.60;8.60;;;;;;;19.63;49.37;102101.25;4996169;28;20042;-64
2022/06/02 07:57:34;;;;;;;9.52;8.52;;;;;;;19.73;48.89;102092.25;4996279;28;20129;-64
2022/06/02 08:00:09;;;;;;;9.27;8.38;;;;;;;19.76;48.96;102094.69;4983651;28;20039;-64
2022/06/02 08:02:56;;;;;;;12.75;9.63;;;;;;;19.70;48.40;102093.38;4996110;28;20046;-64
2022/06/02 08:05:43;;;;;;;10.35;9.35;;;;;;;19.65;48.56;102090.19;4996270;28;20511;-65
2022/06/02 08:08:45;;;;;;;10.90;9.32;;;;;;;19.72;48.44;102094.09;4995971;28;20120;-65
2022/06/02 08:11:32;;;;;;;11.50;10.30;;;;;;;19.91;48.34;102094.16;4964543;28;20137;-65
2022/06/02 08:14:12;;;;;;;11.50;10.40;;;;;;;20.09;48.38;102085.34;4995992;28;20081;-64
2022/06/02 08:16:55;;;;;;;8.65;7.70;;;;;;;20.20;48.24;102088.78;4995926;28;20030;-65
2022/06/02 08:19:49;;;;;;;9.45;8.50;;;;;;;20.25;47.65;102088.38;4995959;28;20050;-65
2022/06/02 08:22:26;;;;;;;9.93;8.93;;;;;;;20.34;47.33;102084.78;4992789;28;20046;-65
2022/06/02 08:24:58;;;;;;;10.10;9.05;;;;;;;20.48;47.33;102098.03;4995772;28;20045;-65
2022/06/02 08:27:38;;;;;;;8.88;7.97;;;;;;;20.65;47.51;102099.19;4978141;28;20050;-65
2022/06/02 08:30:10;;;;;;;8.88;7.97;;;;;;;20.89;47.21;102101.50;4978563;28;20052;-65
2022/06/02 08:33:03;;;;;;;9.65;8.65;;;;;;;21.09;46.29;102099.59;4978400;28;20067;-65
2022/06/02 08:35:49;;;;;;;11.02;7.60;;;;;;;21.32;46.49;102098.28;4942269;28;20488;-65
2022/06/02 08:38:35;;;;;;;11.20;9.48;;;;;;;21.55;46.19;102093.28;4995701;28;20046;-65
2022/06/02 08:41:35;;;;;;;9.38;8.48;;;;;;;21.70;45.82;102096.44;4995468;28;20042;-65
2022/06/02 08:44:23;;;;;;;10.38;9.30;;;;;;;21.86;45.71;102105.69;4995277;28;20074;-65
2022/06/02 08:47:08;;;;;;;11.45;10.35;;;;;;;22.06;45.62;102094.66;4995401;28;20050;-65
2022/06/02 08:49:56;;;;;;;10.57;9.02;;;;;;;22.12;44.38;102097.66;4995179;28;20543;-64
2022/06/02 08:52:23;;;;;;;10.30;9.30;;;;;;;22.08;44.45;102093.50;4994479;28;20034;-67
2022/06/02 08:55:26;;;;;;;10.50;8.57;;;;;;;22.06;44.23;102097.41;4994438;28;20127;-67
2022/06/02 08:58:38;;;;;;;9.55;8.63;;;;;;;22.02;44.34;102104.16;4977749;28;20046;-66
2022/06/02 09:01:10;;;;;;;9.80;8.90;;;;;;;21.99;44.66;102097.13;4942291;28;20042;-66
2022/06/02 09:03:55;;;;;;;9.55;8.63;;;;;;;21.88;43.81;102109.13;4994620;28;20050;-66
2022/06/02 09:06:41;;;;;;;8.77;7.90;;;;;;;21.86;43.90;102111.16;4994976;28;20093;-66
2022/06/02 09:09:26;;;;;;;9.77;8.77;;;;;;;21.86;43.88;102104.84;4995214;28;20042;-67
2022/06/02 09:12:20;;;;;;;9.70;8.70;;;;;;;21.79;43.60;102107.31;4981954;28;20044;-66
2022/06/02 09:15:29;;;;;;;8.30;7.50;;;;;;;21.84;43.40;102101.38;4995155;28;20065;-65
2022/06/02 09:18:33;;;;;;;9.00;8.13;;;;;;;21.94;43.24;102099.47;4994742;28;20053;-66
2022/06/02 09:21:29;;;;;;;10.05;9.07;;;;;;;21.99;43.22;102107.22;4980197;28;20049;-66
2022/06/02 09:24:14;;;;;;;10.70;9.40;;;;;;;21.95;43.22;102101.19;4994673;28;20077;-66
2022/06/02 09:27:22;;;;;;;9.10;8.20;;;;;;;21.85;42.98;102093.03;4994865;28;20050;-66
2022/06/02 09:29:57;;;;;;;9.05;8.15;;;;;;;21.75;42.96;102097.69;4994152;28;20042;-66
2022/06/02 09:32:39;;;;;;;9.48;8.40;;;;;;;21.69;43.06;102103.75;4994483;28;20141;-65
2022/06/02 09:35:20;;;;;;;9.30;8.40;;;;;;;21.59;42.71;102104.81;4994693;28;20043;-66
2022/06/02 09:38:34;;;;;;;9.23;8.25;;;;;;;21.46;42.35;102110.59;4994519;28;20381;-66
2022/06/02 09:41:19;;;;;;;8.45;7.65;;;;;;;21.50;42.54;102104.69;4975150;28;20042;-66
2022/06/02 09:44:18;;;;;;;8.40;7.60;;;;;;;21.65;42.37;102102.34;4994371;28;20096;-65
2022/06/02 09:47:22;;;;;;;8.90;8.00;;;;;;;21.86;42.53;102100.22;4984791;28;20058;-66
2022/06/02 09:50:11;;;;;;;8.90;7.70;;;;;;;22.08;42.34;102098.97;4993888;28;20046;-65
2022/06/02 09:53:00;;;;;;;9.70;7.63;;;;;;;22.27;42.19;102105.34;4976822;28;20430;-67
2022/06/02 09:55:36;;;;;;;8.45;7.55;;;;;;;22.35;41.49;102091.75;4993606;28;20488;-65
2022/06/02 09:58:41;;;;;;;8.80;7.93;;;;;;;22.43;41.45;102095.44;4994069;28;20039;-65
2022/06/02 10:01:25;;;;;;;8.80;7.90;;;;;;;22.53;41.14;102098.09;4976611;28;20039;-66
2022/06/02 10:03:58;;;;;;;9.80;7.73;;;;;;;22.57;41.03;102098.66;4993963;28;20046;-66
2022/06/02 10:06:57;;;;;;;7.97;7.28;;;;;;;22.55;41.22;102090.59;4994082;28;20034;-66
2022/06/02 10:09:49;;;;;;;8.18;7.38;;;;;;;22.56;41.54;102089.56;4993921;28;20400;-67
2022/06/02 10:15:46;;;;;;;8.30;7.50;;;;;;;22.76;40.83;102087.53;4994124;28;20047;-67
2022/06/02 10:18:29;;;;;;;7.68;6.88;;;;;;;22.86;40.52;102084.72;4993835;28;20050;-65
2022/06/02 10:21:27;;;;;;;9.18;8.27;;;;;;;22.95;40.68;102090.09;4976409;28;20058;-66
2022/06/02 10:24:18;;;;;;;7.95;7.22;;;;;;;23.14;40.33;102086.34;4961232;28;20066;-66
2022/06/02 10:27:06;;;;;;;8.02;7.25;;;;;;;23.26;40.11;102093.25;4993808;28;20566;-66
2022/06/02 10:29:59;;;;;;;7.50;5.70;;;;;;;23.43;39.63;102091.47;4993767;28;20042;-66
2022/06/02 10:32:44;;;;;;;7.80;5.68;;;;;;;23.64;39.47;102083.72;4977095;28;20047;-66
2022/06/02 10:35:14;;;;;;;6.90;6.20;;;;;;;23.83;39.44;102088.13;4997859;28;20050;-65
2022/06/02 10:38:15;;;;;;;8.27;6.88;;;;;;;23.95;38.78;102086.78;4998113;28;20046;-66
2022/06/02 10:41:09;;;;;;;5.30;4.72;;;;;;;24.07;38.81;102077.22;4980363;28;20038;-66
2022/06/02 10:44:04;;;;;;;7.22;5.28;;;;;;;24.23;38.40;102075.53;4997398;28;20072;-67
2022/06/02 10:46:49;;;;;;;4.78;4.28;;;;;;;24.37;37.95;102073.03;4985802;28;20050;-65
2022/06/02 10:49:26;;;;;;;3.95;3.55;;;;;;;24.52;37.39;102075.97;4997617;28;20460;-65
2022/06/02 10:52:26;;;;;;;4.63;4.18;;;;;;;24.65;37.27;102062.59;4997402;28;20480;-66
2022/06/02 10:54:56;;;;;;;4.53;4.05;;;;;;;24.86;36.84;102061.22;4997830;28;20034;-66
2022/06/02 10:57:47;;;;;;;4.55;3.78;;;;;;;24.98;36.66;102059.88;4997619;28;20052;-67
2022/06/02 11:00:30;;;;;;;5.20;4.70;;;;;;;25.11;36.22;102054.69;4997304;28;20150;-67
2022/06/02 11:03:32;;;;;;;4.72;4.32;;;;;;;25.18;36.10;102060.34;4997108;28;20129;-66
2022/06/02 11:06:17;;;;;;;5.20;3.83;;;;;;;25.39;36.02;102051.56;4928107;28;20060;-67
2022/06/02 11:09:17;;;;;;;5.45;4.30;;;;;;;25.62;35.96;102049.75;4997824;28;20061;-66
2022/06/02 11:12:13;;;;;;;6.30;5.70;;;;;;;25.81;35.20;102051.22;4996776;28;20045;-67
2022/06/02 11:14:58;;;;;;;5.53;5.00;;;;;;;25.91;35.14;102051.88;4979444;28;20061;-66
2022/06/02 11:17:57;;;;;;;6.50;5.38;;;;;;;25.95;35.06;102045.81;4996806;28;20053;-67
2022/06/02 11:20:40;;;;;;;7.38;5.05;;;;;;;25.90;35.13;102056.50;4986478;28;20484;-66
2022/06/02 11:23:40;;;;;;;4.35;3.95;;;;;;;25.89;34.56;102043.78;4990777;28;20050;-66
2022/06/02 11:26:44;;;;;;;4.97;4.38;;;;;;;25.92;34.07;102040.69;4970217;28;20464;-67
2022/06/02 11:29:48;;;;;;;3.88;3.58;;;;;;;25.92;34.12;102037.94;4994621;28;20049;-67
2022/06/02 11:32:26;;;;;;;4.60;4.20;;;;;;;25.84;33.86;102039.88;4994716;28;20034;-67
2022/06/02 11:35:18;;;;;;;4.78;4.32;;;;;;;25.80;33.29;102038.50;4989119;28;20043;-67
2022/06/02 11:38:03;;;;;;;5.07;4.53;;;;;;;25.74;33.36;102041.97;4996557;28;20034;-66
2022/06/02 11:40:54;;;;;;;3.70;3.38;;;;;;;25.77;33.11;102042.47;4996107;28;20097;-66
2022/06/02 11:43:43;;;;;;;4.30;3.63;;;;;;;25.83;33.05;102038.16;4995523;28;20046;-67
2022/06/02 11:46:33;;;;;;;3.53;3.22;;;;;;;25.95;33.11;102034.81;4994076;28;20046;-66
2022/06/02 11:49:11;;;;;;;4.82;3.50;;;;;;;26.00;33.13;102036.16;4996098;28;20046;-66
2022/06/02 11:52:05;;;;;;;4.15;3.60;;;;;;;26.02;32.54;102037.72;4995910;28;20053;-66
2022/06/02 11:55:03;;;;;;;4.82;3.60;;;;;;;26.07;32.99;102032.53;4996101;28;20488;-66
2022/06/02 11:57:36;;;;;;;3.67;3.00;;;;;;;26.22;32.92;102021.59;4995820;28;20144;-67
2022/06/02 12:00:18;;;;;;;3.88;3.58;;;;;;;26.34;32.75;102033.06;4995567;28;20050;-66
2022/06/02 12:03:06;;;;;;;4.15;3.75;;;;;;;26.43;32.30;102023.69;4995783;28;20038;-67
2022/06/02 12:05:38;;;;;;;5.38;4.30;;;;;;;26.52;32.82;102026.19;4986807;28;20056;-68
2022/06/02 12:08:29;;;;;;;4.80;3.88;;;;;;;26.57;32.16;102020.97;4978380;28;20034;-68
2022/06/02 12:10:59;;;;;;;3.45;3.03;;;;;;;26.57;31.90;102032.00;4994895;28;20046;-68
2022/06/02 12:13:47;;;;;;;4.15;3.55;;;;;;;26.59;32.13;102024.41;4995042;28;20038;-67
2022/06/02 12:16:27;;;;;;;4.03;3.63;;;;;;;26.65;32.27;102019.19;4978257;28;20049;-68
2022/06/02 12:19:22;;;;;;;3.45;2.90;;;;;;;26.70;31.73;102019.50;4984660;28;20048;-68
2022/06/02 12:22:08;;;;;;;4.85;3.47;;;;;;;26.72;31.67;102009.16;4977469;28;20052;-67
2022/06/02 12:24:44;;;;;;;5.40;3.70;;;;;;;26.68;31.70;102007.81;4995470;28;20050;-68
2022/06/02 12:27:45;;;;;;;3.35;3.05;;;;;;;26.59;31.55;102005.13;4994383;28;20046;-68
2022/06/02 12:30:49;;;;;;;4.45;4.05;;;;;;;26.52;31.85;102004.16;4985366;28;20046;-67
2022/06/02 12:33:41;;;;;;;4.53;3.72;;;;;;;26.44;31.86;102001.47;4993434;28;20054;-68
2022/06/02 12:36:50;;;;;;;5.53;3.83;;;;;;;26.38;32.00;102006.88;4984585;28;20044;-68
2022/06/02 12:39:48;;;;;;;4.80;4.25;;;;;;;26.28;31.80;101999.69;4984009;28;20052;-69
2022/06/02 12:42:17;;;;;;;4.28;3.90;;;;;;;26.24;31.60;101991.97;4995157;28;20046;-68
2022/06/02 12:45:11;;;;;;;4.10;3.75;;;;;;;26.25;31.30;101993.69;4995298;28;20038;-67
2022/06/02 12:48:15;;;;;;;3.88;3.50;;;;;;;26.36;31.17;101992.41;4994763;28;20039;-68
2022/06/02 12:50:51;;;;;;;3.90;3.53;;;;;;;26.50;31.32;101980.59;4995246;28;20051;-67
2022/06/02 12:53:46;;;;;;;4.47;3.20;;;;;;;26.65;31.58;101980.63;4995026;28;20049;-68
2022/06/02 12:56:43;;;;;;;3.28;2.95;;;;;;;26.78;30.97;101976.22;4976003;28;20046;-68